createdAt,value
2022-11-06T00:00:32.940Z,100.00
2022-11-06T00:02:59.781Z,100.00
2022-11-06T00:05:45.604Z,100.00
2022-11-06T00:08:12.346Z,100.00
2022-11-06T00:10:39.053Z,100.00
2022-11-06T00:13:18.557Z,100.00
2022-11-06T00:15:44.975Z,100.00
2022-11-06T00:18:11.600Z,100.00
2022-11-06T00:20:38.236Z,100.00
2022-11-06T00:23:04.633Z,100.00
2022-11-06T00:25:31.069Z,100.00
2022-11-06T00:27:57.476Z,100.00
2022-11-06T00:30:23.913Z,100.00
2022-11-06T00:32:50.321Z,100.00
2022-11-06T00:35:16.936Z,100.00
2022-11-06T00:37:43.349Z,100.00
2022-11-06T00:40:10.070Z,100.00
2022-11-06T00:42:36.484Z,100.00
2022-11-06T00:45:02.938Z,100.00
2022-11-06T00:47:29.354Z,100.00
2022-11-06T00:49:55.794Z,100.00
2022-11-06T00:52:22.226Z,100.00
2022-11-06T00:54:48.686Z,100.00
2022-11-06T00:57:15.118Z,100.00
2022-11-06T00:59:41.525Z,100.00
2022-11-06T01:02:08.103Z,100.00
2022-11-06T01:04:34.790Z,100.00
2022-11-06T01:07:01.229Z,100.00
2022-11-06T01:09:28.394Z,100.00
2022-11-06T01:12:13.303Z,100.00
2022-11-06T01:14:40.390Z,100.00
2022-11-06T01:17:06.842Z,100.00
2022-11-06T01:19:33.262Z,100.00
2022-11-06T01:21:59.662Z,100.00
2022-11-06T01:24:27.002Z,100.00
2022-11-06T01:27:24.269Z,100.00
2022-11-06T01:29:40.076Z,100.00
2022-11-06T01:32:06.605Z,100.00
2022-11-06T01:34:33.061Z,100.00
2022-11-06T01:36:59.494Z,100.00
2022-11-06T01:39:25.970Z,100.00
2022-11-06T01:41:52.723Z,100.00
2022-11-06T01:44:38.284Z,100.00
2022-11-06T01:47:05.603Z,100.00
2022-11-06T01:49:36.205Z,100.00
2022-11-06T01:52:03.687Z,100.00
2022-11-06T01:54:30.206Z,100.00
2022-11-06T01:56:57.410Z,100.00
2022-11-06T01:59:24.592Z,100.00
2022-11-06T02:01:51.336Z,100.00
2022-11-06T02:04:29.017Z,100.00
2022-11-06T02:06:55.426Z,100.00
2022-11-06T02:09:21.858Z,100.00
2022-11-06T02:11:52.171Z,100.00
2022-11-06T02:14:21.579Z,100.00
2022-11-06T02:16:57.170Z,100.00
2022-11-06T02:19:38.888Z,100.00
2022-11-06T02:22:17.281Z,100.00
2022-11-06T02:24:46.740Z,100.00
2022-11-06T02:27:17.009Z,100.00
2022-11-06T02:29:49.582Z,100.00
2022-11-06T02:32:17.729Z,100.00
2022-11-06T02:34:44.154Z,100.00
2022-11-06T02:37:12.622Z,100.00
2022-11-06T02:39:39.780Z,100.00
2022-11-06T02:42:06.504Z,100.00
2022-11-06T02:44:32.935Z,100.00
2022-11-06T02:47:01.211Z,100.00
2022-11-06T02:49:27.634Z,100.00
2022-11-06T02:51:55.827Z,100.00
2022-11-06T02:54:22.561Z,100.00
2022-11-06T02:56:49.865Z,100.00
2022-11-06T02:59:23.906Z,100.00
2022-11-06T03:01:51.997Z,100.00
2022-11-06T03:04:23.281Z,100.00
2022-11-06T03:07:09.962Z,100.00
2022-11-06T03:09:36.427Z,100.00
2022-11-06T03:12:12.626Z,100.00
2022-11-06T03:14:54.410Z,100.00
2022-11-06T03:17:22.140Z,100.00
2022-11-06T03:19:48.568Z,100.00
2022-11-06T03:22:16.981Z,100.00
2022-11-06T03:25:03.665Z,100.00
2022-11-06T03:27:33.203Z,100.00
2022-11-06T03:30:02.746Z,100.00
2022-11-06T03:32:48.938Z,100.00
2022-11-06T03:35:26.857Z,100.00
2022-11-06T03:38:11.737Z,100.00
2022-11-06T03:40:40.324Z,100.00
2022-11-06T03:43:06.751Z,100.00
2022-11-06T03:45:33.264Z,100.00
2022-11-06T03:47:59.668Z,100.00
2022-11-06T03:50:26.777Z,100.00
2022-11-06T03:52:55.486Z,100.00
2022-11-06T03:55:22.788Z,100.00
2022-11-06T03:57:53.272Z,100.00
2022-11-06T04:00:20.563Z,100.00
2022-11-06T04:02:49.456Z,100.00
2022-11-06T04:05:17.950Z,100.00
2022-11-06T04:08:05.319Z,100.00
2022-11-06T04:10:50.560Z,100.00
2022-11-06T04:13:35.713Z,100.00
2022-11-06T04:16:02.215Z,100.00
2022-11-06T04:18:28.633Z,100.00
2022-11-06T04:21:27.488Z,100.00
2022-11-06T04:24:13.851Z,100.00
2022-11-06T04:26:43.204Z,100.00
2022-11-06T04:29:14.809Z,100.00
2022-11-06T04:31:43.207Z,100.00
2022-11-06T04:34:13.711Z,100.00
2022-11-06T04:36:42.743Z,100.00
2022-11-06T04:39:12.137Z,100.00
2022-11-06T04:41:50.945Z,100.00
2022-11-06T04:44:27.638Z,100.00
2022-11-06T04:46:56.322Z,100.00
2022-11-06T04:49:22.741Z,100.00
2022-11-06T04:51:49.186Z,100.00
2022-11-06T04:54:15.637Z,100.00
2022-11-06T04:56:46.007Z,100.00
2022-11-06T04:59:14.722Z,100.00
2022-11-06T05:01:41.278Z,100.00
2022-11-06T05:04:07.817Z,100.00
2022-11-06T05:06:34.248Z,100.00
2022-11-06T05:09:01.296Z,100.00
2022-11-06T05:11:27.708Z,100.00
2022-11-06T05:13:54.293Z,100.00
2022-11-06T05:16:20.726Z,100.00
2022-11-06T05:18:47.140Z,100.00
2022-11-06T05:21:32.243Z,100.00
2022-11-06T05:23:58.637Z,100.00
2022-11-06T05:26:25.523Z,100.00
2022-11-06T05:28:51.958Z,100.00
2022-11-06T05:31:18.361Z,100.00
2022-11-06T05:33:44.778Z,100.00
2022-11-06T05:36:11.250Z,100.00
2022-11-06T05:38:37.704Z,100.00
2022-11-06T05:41:04.227Z,100.00
2022-11-06T05:43:30.765Z,100.00
2022-11-06T05:45:57.197Z,100.00
2022-11-06T05:48:23.625Z,100.00
2022-11-06T05:50:50.088Z,100.00
2022-11-06T05:53:16.851Z,100.00
2022-11-06T05:55:45.164Z,100.00
2022-11-06T05:58:11.898Z,100.00
2022-11-06T06:00:38.621Z,100.00
2022-11-06T06:03:05.099Z,100.00
2022-11-06T06:05:31.534Z,100.00
2022-11-06T06:07:57.946Z,100.00
2022-11-06T06:10:24.401Z,100.00
2022-11-06T06:12:50.833Z,100.00
2022-11-06T06:15:17.590Z,100.00
2022-11-06T06:17:45.382Z,100.00
2022-11-06T06:20:12.033Z,100.00
2022-11-06T06:22:38.471Z,100.00
2022-11-06T06:25:07.602Z,100.00
2022-11-06T06:27:38.722Z,100.00
2022-11-06T06:30:05.397Z,100.00
2022-11-06T06:32:31.810Z,100.00
2022-11-06T06:34:58.212Z,100.00
2022-11-06T06:37:24.636Z,100.00
2022-11-06T06:39:51.056Z,100.00
2022-11-06T06:42:17.526Z,100.00
2022-11-06T06:44:43.970Z,100.00
2022-11-06T06:47:10.430Z,100.00
2022-11-06T06:49:36.937Z,100.00
2022-11-06T06:52:04.319Z,100.00
2022-11-06T06:54:30.716Z,100.00
2022-11-06T06:56:57.155Z,100.00
2022-11-06T06:59:23.587Z,100.00
2022-11-06T07:01:50.283Z,100.00
2022-11-06T07:04:16.810Z,100.00
2022-11-06T07:06:43.254Z,100.00
2022-11-06T07:09:09.653Z,100.00
2022-11-06T07:11:36.081Z,100.00
2022-11-06T07:14:02.500Z,100.00
2022-11-06T07:16:30.010Z,100.00
2022-11-06T07:18:56.397Z,100.00
2022-11-06T07:21:22.882Z,100.00
2022-11-06T07:23:49.278Z,100.00
2022-11-06T07:26:15.889Z,100.00
2022-11-06T07:28:42.325Z,100.00
2022-11-06T07:31:08.907Z,100.00
2022-11-06T07:33:35.506Z,100.00
2022-11-06T07:36:02.714Z,100.00
2022-11-06T07:38:29.155Z,100.00
2022-11-06T07:40:55.573Z,100.00
2022-11-06T07:43:24.813Z,100.00
2022-11-06T07:45:51.580Z,100.00
2022-11-06T07:48:18.009Z,100.00
2022-11-06T07:50:44.417Z,100.00
2022-11-06T07:53:11.000Z,100.00
2022-11-06T07:55:41.943Z,100.00
2022-11-06T07:58:08.838Z,100.00
2022-11-06T08:00:35.295Z,100.00
2022-11-06T08:03:01.760Z,100.00
2022-11-06T08:05:28.158Z,100.00
2022-11-06T08:07:57.923Z,100.00
2022-11-06T08:10:24.337Z,100.00
2022-11-06T08:12:50.750Z,100.00
2022-11-06T08:15:17.168Z,100.00
2022-11-06T08:17:43.606Z,100.00
2022-11-06T08:20:10.146Z,100.00
2022-11-06T08:22:36.614Z,100.00
2022-11-06T08:25:03.107Z,100.00
2022-11-06T08:27:29.580Z,100.00
2022-11-06T08:29:55.998Z,100.00
2022-11-06T08:32:22.453Z,100.00
2022-11-06T08:34:48.830Z,100.00
2022-11-06T08:37:15.255Z,100.00
2022-11-06T08:39:41.675Z,100.00
2022-11-06T08:42:08.197Z,100.00
2022-11-06T08:44:34.885Z,100.00
2022-11-06T08:47:01.353Z,100.00
2022-11-06T08:49:27.793Z,100.00
2022-11-06T08:51:54.736Z,100.00
2022-11-06T08:54:21.142Z,100.00
2022-11-06T08:56:47.567Z,100.00
2022-11-06T08:59:14.002Z,100.00
2022-11-06T09:01:40.515Z,100.00
2022-11-06T09:04:08.006Z,100.00
2022-11-06T09:06:34.471Z,100.00
2022-11-06T09:09:00.936Z,100.00
2022-11-06T09:11:27.354Z,100.00
2022-11-06T09:13:53.804Z,100.00
2022-11-06T09:16:20.222Z,100.00
2022-11-06T09:18:46.656Z,100.00
2022-11-06T09:21:13.076Z,100.00
2022-11-06T09:23:39.777Z,100.00
2022-11-06T09:26:06.192Z,100.00
2022-11-06T09:28:32.629Z,100.00
2022-11-06T09:30:59.038Z,100.00
2022-11-06T09:33:25.867Z,100.00
2022-11-06T09:35:52.783Z,100.00
2022-11-06T09:38:19.249Z,100.00
2022-11-06T09:40:50.185Z,100.00
2022-11-06T09:43:50.402Z,100.00
2022-11-06T09:46:17.677Z,100.00
2022-11-06T09:48:44.995Z,100.00
2022-11-06T09:51:20.678Z,100.00
2022-11-06T09:53:47.133Z,100.00
2022-11-06T09:56:13.890Z,100.00
2022-11-06T09:58:42.071Z,100.00
2022-11-06T10:01:23.291Z,100.00
2022-11-06T10:04:14.840Z,100.00
2022-11-06T10:06:41.234Z,100.00
2022-11-06T10:09:07.672Z,100.00
2022-11-06T10:11:50.668Z,100.00
2022-11-06T10:14:17.116Z,100.00
2022-11-06T10:16:50.062Z,100.00
2022-11-06T10:19:35.957Z,100.00
2022-11-06T10:22:14.442Z,100.00
2022-11-06T10:24:57.506Z,100.00
2022-11-06T10:27:26.365Z,100.00
2022-11-06T10:29:58.850Z,100.00
2022-11-06T10:32:35.350Z,100.00
2022-11-06T10:35:20.693Z,100.00
2022-11-06T10:37:51.326Z,100.00
2022-11-06T10:40:19.158Z,100.00
2022-11-06T10:42:46.687Z,100.00
2022-11-06T10:45:16.681Z,92.43
2022-11-06T10:47:53.933Z,90.55
2022-11-06T10:50:20.467Z,98.98
2022-11-06T10:52:46.991Z,100.00
2022-11-06T10:55:31.882Z,100.00
2022-11-06T10:58:02.329Z,100.00
2022-11-06T11:00:29.014Z,100.00
2022-11-06T11:03:15.670Z,100.00
2022-11-06T11:05:42.759Z,100.00
2022-11-06T11:08:27.949Z,100.00
2022-11-06T11:11:04.938Z,96.79
2022-11-06T11:13:31.897Z,99.16
2022-11-06T11:15:58.345Z,100.00
2022-11-06T11:18:31.930Z,100.00
2022-11-06T11:21:05.746Z,100.00
2022-11-06T11:23:32.349Z,100.00
2022-11-06T11:26:15.947Z,100.00
2022-11-06T11:28:42.381Z,100.00
2022-11-06T11:31:12.317Z,100.00
2022-11-06T11:33:39.194Z,100.00
2022-11-06T11:36:06.757Z,100.00
2022-11-06T11:38:36.842Z,100.00
2022-11-06T11:41:11.857Z,100.00
2022-11-06T11:43:38.341Z,100.00
2022-11-06T11:46:07.792Z,100.00
2022-11-06T11:48:49.423Z,100.00
2022-11-06T11:51:15.793Z,100.00
2022-11-06T11:53:42.276Z,100.00
2022-11-06T11:56:08.693Z,100.00
2022-11-06T11:58:35.167Z,100.00
2022-11-06T12:01:02.238Z,100.00
2022-11-06T12:03:29.514Z,100.00
2022-11-06T12:06:04.190Z,100.00
2022-11-06T12:08:30.618Z,100.00
2022-11-06T12:11:01.398Z,100.00
2022-11-06T12:13:27.828Z,100.00
2022-11-06T12:15:55.837Z,100.00
2022-11-06T12:18:29.580Z,100.00
2022-11-06T12:21:14.522Z,100.00
2022-11-06T12:23:43.022Z,100.00
2022-11-06T12:26:09.383Z,100.00
2022-11-06T12:28:36.271Z,98.71
2022-11-06T12:31:04.053Z,98.42
2022-11-06T12:34:00.022Z,99.72
2022-11-06T12:36:18.309Z,99.47
2022-11-06T12:38:46.543Z,100.00
2022-11-06T12:41:23.458Z,100.00
2022-11-06T12:43:50.632Z,97.14
2022-11-06T12:46:35.693Z,99.24
2022-11-06T12:49:09.806Z,100.00
2022-11-06T12:51:42.666Z,100.00
2022-11-06T12:54:12.110Z,100.00
2022-11-06T12:56:41.517Z,100.00
2022-11-06T12:59:11.005Z,96.90
2022-11-06T13:01:53.910Z,97.78
2022-11-06T13:04:34.300Z,97.35
2022-11-06T13:07:14.779Z,96.17
2022-11-06T13:09:48.032Z,95.87
2022-11-06T13:12:25.017Z,96.17
2022-11-06T13:15:10.287Z,94.29
2022-11-06T13:18:02.967Z,96.39
2022-11-06T13:20:38.539Z,97.43
2022-11-06T13:23:13.502Z,97.53
2022-11-06T13:25:53.130Z,95.68
2022-11-06T13:28:22.755Z,93.84
2022-11-06T13:30:49.240Z,92.33
2022-11-06T13:33:25.721Z,89.91
2022-11-06T13:35:52.192Z,89.82
2022-11-06T13:38:20.969Z,90.04
2022-11-06T13:40:48.723Z,87.19
2022-11-06T13:43:17.282Z,86.73
2022-11-06T13:45:46.201Z,84.13
2022-11-06T13:48:18.412Z,83.52
2022-11-06T13:50:50.675Z,80.88
2022-11-06T13:53:35.918Z,79.90
2022-11-06T13:56:22.599Z,77.85
2022-11-06T13:58:53.836Z,80.45
2022-11-06T14:01:35.619Z,75.83
2022-11-06T14:04:08.202Z,78.61
2022-11-06T14:06:34.629Z,76.98
2022-11-06T14:09:13.243Z,76.87
2022-11-06T14:11:40.486Z,77.93
2022-11-06T14:14:07.797Z,78.92
2022-11-06T14:16:34.390Z,76.47
2022-11-06T14:19:02.538Z,77.90
2022-11-06T14:21:52.295Z,77.47
2022-11-06T14:24:38.061Z,77.20
2022-11-06T14:27:06.876Z,77.90
2022-11-06T14:29:33.248Z,79.01
2022-11-06T14:32:02.799Z,78.66
2022-11-06T14:34:30.173Z,77.28
2022-11-06T14:36:56.589Z,77.72
2022-11-06T14:39:58.448Z,78.67
2022-11-06T14:42:35.087Z,79.28
2022-11-06T14:45:10.745Z,82.92
2022-11-06T14:47:37.190Z,79.38
2022-11-06T14:50:24.700Z,81.94
2022-11-06T14:52:55.834Z,81.06
2022-11-06T14:55:42.549Z,81.01
2022-11-06T14:58:13.784Z,82.80
2022-11-06T15:00:44.904Z,82.74
2022-11-06T15:03:34.709Z,83.60
2022-11-06T15:06:08.638Z,82.07
2022-11-06T15:08:48.149Z,81.69
2022-11-06T15:11:47.673Z,83.84
2022-11-06T15:14:14.561Z,85.92
2022-11-06T15:16:49.956Z,83.19
2022-11-06T15:19:20.612Z,83.87
2022-11-06T15:21:57.921Z,82.58
2022-11-06T15:24:34.508Z,84.49
2022-11-06T15:27:05.195Z,84.92
2022-11-06T15:29:32.309Z,83.54
2022-11-06T15:31:59.277Z,84.38
2022-11-06T15:34:36.775Z,86.18
2022-11-06T15:37:03.192Z,87.23
2022-11-06T15:39:29.738Z,88.21
2022-11-06T15:41:56.467Z,88.39
2022-11-06T15:44:23.426Z,87.34
2022-11-06T15:46:53.989Z,90.09
2022-11-06T15:49:20.658Z,87.16
2022-11-06T15:51:51.514Z,86.65
2022-11-06T15:54:56.873Z,87.55
2022-11-06T15:57:24.653Z,87.01
2022-11-06T15:59:51.123Z,86.21
2022-11-06T16:02:19.442Z,85.42
2022-11-06T16:04:46.237Z,85.85
2022-11-06T16:07:12.934Z,84.71
2022-11-06T16:09:40.263Z,87.55
2022-11-06T16:12:06.771Z,85.52
2022-11-06T16:14:33.130Z,86.37
2022-11-06T16:16:59.848Z,87.22
2022-11-06T16:19:26.369Z,87.13
2022-11-06T16:22:03.443Z,88.54
2022-11-06T16:24:34.488Z,89.96
2022-11-06T16:27:01.575Z,90.42
2022-11-06T16:29:29.497Z,89.84
2022-11-06T16:32:00.351Z,90.38
2022-11-06T16:34:55.206Z,93.70
2022-11-06T16:37:27.697Z,91.51
2022-11-06T16:39:55.983Z,95.02
2022-11-06T16:42:22.431Z,94.50
2022-11-06T16:44:49.853Z,93.56
2022-11-06T16:47:20.249Z,96.63
2022-11-06T16:49:53.696Z,96.10
2022-11-06T16:52:33.875Z,100.00
2022-11-06T16:55:03.404Z,100.00
2022-11-06T16:57:50.089Z,100.00
2022-11-06T17:00:19.511Z,100.00
2022-11-06T17:02:49.221Z,100.00
2022-11-06T17:05:17.553Z,100.00
2022-11-06T17:07:44.449Z,100.00
2022-11-06T17:10:29.785Z,100.00
2022-11-06T17:12:56.202Z,100.00
2022-11-06T17:15:22.682Z,100.00
2022-11-06T17:17:49.349Z,100.00
2022-11-06T17:20:16.258Z,100.00
2022-11-06T17:22:42.697Z,100.00
2022-11-06T17:25:09.148Z,100.00
2022-11-06T17:27:35.570Z,100.00
2022-11-06T17:30:02.037Z,100.00
2022-11-06T17:32:28.408Z,100.00
2022-11-06T17:34:54.810Z,100.00
2022-11-06T17:37:22.082Z,100.00
2022-11-06T17:39:48.682Z,100.00
2022-11-06T17:42:15.096Z,100.00
2022-11-06T17:44:41.522Z,100.00
2022-11-06T17:47:07.901Z,100.00
2022-11-06T17:49:34.346Z,100.00
2022-11-06T17:52:00.992Z,100.00
2022-11-06T17:54:28.677Z,100.00
2022-11-06T17:56:55.303Z,100.00
2022-11-06T17:59:21.944Z,100.00
2022-11-06T18:01:50.434Z,100.00
2022-11-06T18:04:17.584Z,100.00
2022-11-06T18:06:44.870Z,100.00
2022-11-06T18:09:11.544Z,100.00
2022-11-06T18:11:37.929Z,100.00
2022-11-06T18:14:04.372Z,100.00
2022-11-06T18:16:32.323Z,100.00
2022-11-06T18:18:59.091Z,100.00
2022-11-06T18:21:25.679Z,100.00
2022-11-06T18:23:52.216Z,100.00
2022-11-06T18:26:21.218Z,100.00
2022-11-06T18:28:47.911Z,100.00
2022-11-06T18:31:14.296Z,100.00
2022-11-06T18:33:40.681Z,100.00
2022-11-06T18:36:08.430Z,100.00
2022-11-06T18:38:34.853Z,100.00
2022-11-06T18:41:11.497Z,100.00
2022-11-06T18:43:37.982Z,100.00
2022-11-06T18:46:08.153Z,100.00
2022-11-06T18:48:34.593Z,100.00
2022-11-06T18:51:07.826Z,100.00
2022-11-06T18:53:34.314Z,100.00
2022-11-06T18:56:00.815Z,100.00
2022-11-06T18:58:27.215Z,100.00
2022-11-06T19:00:58.984Z,100.00
2022-11-06T19:03:28.002Z,100.00
2022-11-06T19:05:54.441Z,100.00
2022-11-06T19:08:20.850Z,100.00
2022-11-06T19:10:47.504Z,100.00
2022-11-06T19:13:13.941Z,100.00
2022-11-06T19:15:40.450Z,100.00
2022-11-06T19:18:06.835Z,100.00
2022-11-06T19:20:33.297Z,100.00
2022-11-06T19:22:59.726Z,100.00
2022-11-06T19:25:26.494Z,100.00
2022-11-06T19:27:53.849Z,100.00
2022-11-06T19:30:20.280Z,100.00
2022-11-06T19:32:46.701Z,100.00
2022-11-06T19:35:15.309Z,100.00
2022-11-06T19:37:41.900Z,100.00
2022-11-06T19:40:08.508Z,100.00
2022-11-06T19:42:34.915Z,100.00
2022-11-06T19:45:01.587Z,100.00
2022-11-06T19:47:28.190Z,100.00
2022-11-06T19:49:54.657Z,100.00
2022-11-06T19:52:41.829Z,100.00
2022-11-06T19:55:26.118Z,100.00
2022-11-06T19:57:53.941Z,100.00
2022-11-06T20:00:20.418Z,100.00
2022-11-06T20:02:50.816Z,100.00
2022-11-06T20:05:17.491Z,100.00
2022-11-06T20:07:43.934Z,100.00
2022-11-06T20:10:10.385Z,100.00
2022-11-06T20:12:36.778Z,100.00
2022-11-06T20:15:03.380Z,100.00
2022-11-06T20:17:29.801Z,100.00
2022-11-06T20:19:56.528Z,100.00
2022-11-06T20:22:23.423Z,100.00
2022-11-06T20:24:49.830Z,100.00
2022-11-06T20:27:16.241Z,100.00
2022-11-06T20:29:42.751Z,100.00
2022-11-06T20:32:09.820Z,100.00
2022-11-06T20:34:36.309Z,100.00
2022-11-06T20:37:02.777Z,100.00
2022-11-06T20:39:29.208Z,100.00
2022-11-06T20:41:55.675Z,100.00
2022-11-06T20:44:22.072Z,100.00
2022-11-06T20:46:48.518Z,100.00
2022-11-06T20:49:14.986Z,100.00
2022-11-06T20:52:07.436Z,100.00
2022-11-06T20:54:27.802Z,100.00
2022-11-06T20:56:54.237Z,100.00
2022-11-06T20:59:20.722Z,100.00
2022-11-06T21:01:47.347Z,100.00
2022-11-06T21:04:14.078Z,100.00
2022-11-06T21:06:40.650Z,100.00
2022-11-06T21:09:07.181Z,100.00
2022-11-06T21:11:34.074Z,100.00
2022-11-06T21:14:00.503Z,100.00
2022-11-06T21:16:31.500Z,100.00
2022-11-06T21:18:58.667Z,100.00
2022-11-06T21:21:25.850Z,100.00
2022-11-06T21:23:52.633Z,100.00
2022-11-06T21:26:20.565Z,100.00
2022-11-06T21:28:47.027Z,100.00
2022-11-06T21:31:14.733Z,100.00
2022-11-06T21:33:44.796Z,100.00
2022-11-06T21:36:12.358Z,100.00
2022-11-06T21:38:38.812Z,100.00
2022-11-06T21:41:06.574Z,100.00
2022-11-06T21:43:33.039Z,100.00
2022-11-06T21:46:06.210Z,100.00
2022-11-06T21:48:46.022Z,100.00
2022-11-06T21:51:17.908Z,100.00
2022-11-06T21:54:03.657Z,100.00
2022-11-06T21:56:30.181Z,100.00
2022-11-06T21:58:57.499Z,100.00
2022-11-06T22:01:24.464Z,100.00
2022-11-06T22:03:51.019Z,100.00
2022-11-06T22:06:20.411Z,100.00
2022-11-06T22:08:47.212Z,100.00
2022-11-06T22:11:16.677Z,100.00
2022-11-06T22:13:44.100Z,100.00
2022-11-06T22:16:10.949Z,100.00
2022-11-06T22:18:37.547Z,100.00
2022-11-06T22:21:36.410Z,100.00
2022-11-06T22:24:02.846Z,100.00
2022-11-06T22:26:30.165Z,100.00
2022-11-06T22:28:57.465Z,100.00
2022-11-06T22:31:24.108Z,100.00
2022-11-06T22:33:53.636Z,100.00
2022-11-06T22:36:20.683Z,100.00
2022-11-06T22:38:47.174Z,100.00
2022-11-06T22:41:14.500Z,100.00
2022-11-06T22:43:41.460Z,100.00
2022-11-06T22:46:18.223Z,100.00
2022-11-06T22:48:45.347Z,100.00
2022-11-06T22:51:13.342Z,100.00
2022-11-06T22:53:40.014Z,100.00
2022-11-06T22:56:06.824Z,100.00
2022-11-06T22:58:33.381Z,100.00
2022-11-06T23:00:59.953Z,100.00
2022-11-06T23:03:27.262Z,100.00
2022-11-06T23:05:57.966Z,100.00
2022-11-06T23:08:24.853Z,100.00
2022-11-06T23:10:51.227Z,100.00
2022-11-06T23:13:17.687Z,100.00
2022-11-06T23:15:44.094Z,100.00
2022-11-06T23:18:10.528Z,100.00
2022-11-06T23:20:36.949Z,100.00
2022-11-06T23:23:03.884Z,100.00
2022-11-06T23:25:30.463Z,100.00
2022-11-06T23:27:58.308Z,100.00
2022-11-06T23:30:24.706Z,100.00
2022-11-06T23:32:51.127Z,100.00
2022-11-06T23:35:19.497Z,100.00
2022-11-06T23:37:47.654Z,100.00
2022-11-06T23:40:14.154Z,100.00
2022-11-06T23:42:40.684Z,100.00
2022-11-06T23:45:25.848Z,100.00
2022-11-06T23:47:52.304Z,100.00
2022-11-06T23:50:18.768Z,100.00
2022-11-06T23:52:45.237Z,100.00
2022-11-06T23:55:11.917Z,100.00
2022-11-06T23:57:38.448Z,100.00
